createdAt,value
2023-09-23T00:02:25.134Z,53.9
2023-09-23T00:07:27.934Z,54.3
2023-09-23T00:12:27.907Z,54.2
2023-09-23T00:17:31.066Z,54.2
2023-09-23T00:22:33.812Z,54.3
2023-09-23T00:27:33.649Z,53.9
2023-09-23T00:32:34.421Z,53.8
2023-09-23T00:37:37.790Z,54
2023-09-23T00:42:41.874Z,54.2
2023-09-23T00:47:41.150Z,54.2
2023-09-23T00:52:44.400Z,54
2023-09-23T00:57:44.252Z,54.4
2023-09-23T01:02:44.594Z,54.3
2023-09-23T01:07:47.572Z,54.4
2023-09-23T01:12:50.198Z,54.6
2023-09-23T01:17:50.169Z,54.7
2023-09-23T01:22:50.544Z,54.5
2023-09-23T01:27:50.780Z,54.4
2023-09-23T01:32:51.210Z,54.3
2023-09-23T01:37:51.562Z,54.4
2023-09-23T01:42:52.066Z,54.5
2023-09-23T01:47:52.620Z,54.2
2023-09-23T01:52:53.030Z,54.4
2023-09-23T01:57:53.380Z,54.3
2023-09-23T02:02:54.084Z,54.4
2023-09-23T02:07:54.480Z,54.4
2023-09-23T02:12:54.695Z,54.3
2023-09-23T02:17:57.589Z,54.8
2023-09-23T02:23:00.408Z,54.4
2023-09-23T02:28:03.022Z,54.3
2023-09-23T02:33:02.790Z,54.3
2023-09-23T02:38:06.332Z,54.4
2023-09-23T02:43:08.889Z,54.4
2023-09-23T02:48:12.247Z,54.1
2023-09-23T02:53:12.363Z,54
2023-09-23T02:58:15.150Z,54.3
2023-09-23T03:03:17.904Z,54.3
2023-09-23T03:08:20.530Z,54.1
2023-09-23T03:13:20.688Z,54.5
2023-09-23T03:18:21.094Z,54.2
2023-09-23T03:23:21.725Z,54.2
2023-09-23T03:28:22.261Z,54.3
2023-09-23T03:33:22.801Z,54.1
2023-09-23T03:38:26.787Z,54.1
2023-09-23T03:43:25.776Z,54
2023-09-23T03:48:26.291Z,53.9
2023-09-23T03:53:29.505Z,53.9
2023-09-23T03:58:32.421Z,53.9
2023-09-23T04:03:34.915Z,53.7
2023-09-23T04:08:37.635Z,54.1
2023-09-23T04:13:40.230Z,53.6
2023-09-23T04:18:42.976Z,53.5
2023-09-23T04:23:45.773Z,53.8
2023-09-23T04:28:48.674Z,53.4
2023-09-23T04:33:51.236Z,53.7
2023-09-23T04:38:50.997Z,53.5
2023-09-23T04:43:51.481Z,53.7
2023-09-23T04:48:51.847Z,53.4
2023-09-23T04:53:55.026Z,53.3
2023-09-23T04:58:57.857Z,53.3
2023-09-23T05:03:57.875Z,53
2023-09-23T05:09:01.210Z,52.9
2023-09-23T05:14:03.981Z,52.8
2023-09-23T05:19:04.322Z,52.7
2023-09-23T05:24:04.770Z,52.7
2023-09-23T05:29:05.405Z,52.4
2023-09-23T05:34:08.603Z,52.8
2023-09-23T05:39:11.336Z,52.6
2023-09-23T05:44:14.065Z,53.3
2023-09-23T05:49:16.960Z,51.9
2023-09-23T05:54:19.703Z,52
2023-09-23T05:59:23.180Z,52.3
2023-09-23T06:04:22.554Z,52.6
2023-09-23T06:09:23.268Z,51.8
2023-09-23T06:14:24.097Z,51.4
2023-09-23T06:19:27.335Z,51.6
2023-09-23T06:24:27.360Z,51.7
2023-09-23T06:29:27.780Z,52.1
2023-09-23T06:34:28.253Z,52.2
2023-09-23T06:39:28.663Z,52.6
2023-09-23T06:44:29.287Z,52.1
2023-09-23T06:49:29.749Z,52.4
2023-09-23T06:54:30.972Z,52.3
2023-09-23T06:59:34.316Z,52
2023-09-23T07:04:34.345Z,52.4
2023-09-23T07:09:34.834Z,52
2023-09-23T07:14:37.995Z,52
2023-09-23T07:19:37.624Z,52.4
2023-09-23T07:24:38.125Z,52.7
2023-09-23T07:29:42.426Z,52.8
2023-09-23T07:34:42.392Z,52.9
2023-09-23T07:39:43.000Z,52.8
2023-09-23T07:44:43.419Z,52.9
2023-09-23T07:49:44.095Z,53
2023-09-23T07:54:44.775Z,53
2023-09-23T07:59:45.292Z,53.1
2023-09-23T08:04:48.425Z,53.1
2023-09-23T08:09:48.468Z,53.1
2023-09-23T08:14:49.144Z,53
2023-09-23T08:19:53.232Z,53
2023-09-23T08:24:53.009Z,52.9
2023-09-23T08:29:53.366Z,53
2023-09-23T08:34:53.956Z,53
2023-09-23T08:39:57.087Z,52.7
2023-09-23T08:44:57.178Z,52.9
2023-09-23T08:49:57.192Z,51.9
2023-09-23T08:54:57.678Z,52.4
2023-09-23T08:59:58.302Z,52.3
2023-09-23T09:04:59.019Z,52.4
2023-09-23T09:09:59.534Z,52.4
2023-09-23T09:14:59.934Z,52.4
2023-09-23T09:20:00.664Z,52.4
2023-09-23T09:25:01.246Z,52.3
2023-09-23T09:30:12.841Z,52.4
2023-09-23T09:35:04.789Z,52.2
2023-09-23T09:40:05.528Z,51.8
2023-09-23T09:45:06.042Z,52
2023-09-23T09:50:09.282Z,51.8
2023-09-23T09:55:11.957Z,51.8
2023-09-23T10:00:13.743Z,51.8
2023-09-23T10:05:16.852Z,51.9
2023-09-23T10:10:19.565Z,51.9
2023-09-23T10:15:19.483Z,51.9
2023-09-23T10:20:22.893Z,51.6
2023-09-23T10:25:24.765Z,51.5
2023-09-23T10:30:25.014Z,51.6
2023-09-23T10:35:25.588Z,51.7
2023-09-23T10:40:26.088Z,51.7
2023-09-23T10:45:26.681Z,51.5
2023-09-23T10:50:26.974Z,51.2
2023-09-23T10:55:27.385Z,51.2
2023-09-23T11:00:28.103Z,51
2023-09-23T11:05:28.548Z,51
2023-09-23T11:10:31.831Z,51
2023-09-23T11:15:34.463Z,50.9
2023-09-23T11:20:37.325Z,50.8
2023-09-23T11:25:37.178Z,50.9
2023-09-23T11:30:40.540Z,50.6
2023-09-23T11:35:40.601Z,50.6
2023-09-23T11:40:41.377Z,50.3
2023-09-23T11:45:41.708Z,50.2
2023-09-23T11:50:44.955Z,50.1
2023-09-23T11:55:45.140Z,50
2023-09-23T12:00:45.700Z,50
2023-09-23T12:05:46.255Z,49.8
2023-09-23T12:10:46.676Z,49.8
2023-09-23T12:15:50.910Z,49.6
2023-09-23T12:20:50.878Z,49.5
2023-09-23T12:25:51.157Z,49.4
2023-09-23T12:30:54.209Z,49.2
2023-09-23T12:35:53.986Z,49.1
2023-09-23T12:40:57.510Z,48.8
2023-09-23T12:45:57.658Z,48.7
2023-09-23T12:50:58.244Z,48.5
2023-09-23T12:55:58.599Z,48.4
2023-09-23T13:01:02.042Z,48.2
2023-09-23T13:06:02.149Z,48.1
2023-09-23T13:11:02.384Z,47.8
2023-09-23T13:16:05.459Z,47.7
2023-09-23T13:21:05.489Z,47.9
2023-09-23T13:26:06.126Z,47.8
2023-09-23T13:31:09.421Z,47.6
2023-09-23T13:36:09.389Z,47.5
2023-09-23T13:41:12.536Z,47.4
2023-09-23T13:46:15.347Z,47.3
2023-09-23T13:51:15.255Z,47.1
2023-09-23T13:56:15.955Z,47.1
2023-09-23T14:01:16.416Z,46.9
2023-09-23T14:06:16.736Z,46.7
2023-09-23T14:11:20.006Z,46.6
2023-09-23T14:16:22.750Z,46.5
2023-09-23T14:21:22.661Z,46.4
2023-09-23T14:26:23.017Z,46.4
2023-09-23T14:31:23.550Z,46
2023-09-23T14:36:26.983Z,46.2
2023-09-23T14:41:27.089Z,46.2
2023-09-23T14:46:27.612Z,46.1
2023-09-23T14:51:28.162Z,46
2023-09-23T14:56:31.498Z,46
2023-09-23T15:01:34.571Z,46
2023-09-23T15:06:37.215Z,45.9
2023-09-23T15:11:37.411Z,45.9
2023-09-23T15:16:40.611Z,45.9
2023-09-23T15:21:40.634Z,45.9
2023-09-23T15:26:41.295Z,45.9
2023-09-23T15:31:44.639Z,45.8
2023-09-23T15:36:44.665Z,45.8
2023-09-23T15:41:45.217Z,45.8
2023-09-23T15:46:48.413Z,45.8
2023-09-23T15:51:48.118Z,45.9
2023-09-23T15:56:48.504Z,46
2023-09-23T16:01:48.975Z,46.2
2023-09-23T16:06:49.559Z,46.3
2023-09-23T16:11:52.808Z,46.4
2023-09-23T16:16:53.234Z,46.5
2023-09-23T16:21:56.034Z,46.6
2023-09-23T16:26:58.851Z,46.6
2023-09-23T16:31:58.915Z,46.3
2023-09-23T16:37:02.230Z,45.6
2023-09-23T16:42:02.303Z,44.7
2023-09-23T16:47:02.577Z,44.6
2023-09-23T16:52:05.693Z,44.4
2023-09-23T16:57:08.455Z,43.8
2023-09-23T17:02:08.521Z,43.2
2023-09-23T17:07:08.947Z,43
2023-09-23T17:12:12.060Z,43.4
2023-09-23T17:17:12.031Z,43.7
2023-09-23T17:22:15.324Z,43.6
2023-09-23T17:27:15.316Z,43.2
2023-09-23T17:32:18.764Z,42.1
2023-09-23T17:37:18.932Z,41.8
2023-09-23T17:42:22.185Z,41.6
2023-09-23T17:47:25.058Z,41
2023-09-23T17:52:25.114Z,40.6
2023-09-23T17:57:25.719Z,40.7
2023-09-23T18:02:29.063Z,40.6
2023-09-23T18:07:29.182Z,40.2
2023-09-23T18:12:29.675Z,40.2
2023-09-23T18:17:30.313Z,40.3
2023-09-23T18:22:30.474Z,40.4
2023-09-23T18:27:31.157Z,40.7
2023-09-23T18:32:31.680Z,41.2
2023-09-23T18:37:34.892Z,41.6
2023-09-23T18:42:34.803Z,41.7
2023-09-23T18:47:35.521Z,41.8
2023-09-23T18:52:38.547Z,41.8
2023-09-23T18:57:41.207Z,42
2023-09-23T19:02:45.745Z,41.9
2023-09-23T19:07:48.354Z,41.5
2023-09-23T19:12:51.129Z,41.7
2023-09-23T19:17:51.067Z,42
2023-09-23T19:22:51.425Z,42.3
2023-09-23T19:27:54.724Z,42.2
2023-09-23T19:32:54.765Z,42.6
2023-09-23T19:37:55.884Z,42.5
2023-09-23T19:42:56.231Z,42.7
2023-09-23T19:47:56.332Z,42.5
2023-09-23T19:52:56.555Z,41.8
2023-09-23T19:57:57.022Z,42.4
2023-09-23T20:02:57.489Z,42.7
2023-09-23T20:07:57.862Z,42.3
2023-09-23T20:12:58.432Z,42.5
2023-09-23T20:17:59.101Z,41.9
2023-09-23T20:22:59.299Z,42.2
2023-09-23T20:28:02.663Z,41.3
2023-09-23T20:33:05.608Z,41.4
2023-09-23T20:38:08.273Z,41.8
2023-09-23T20:43:11.050Z,42.1
2023-09-23T20:48:13.762Z,41.6
2023-09-23T20:53:13.678Z,42.2
2023-09-23T20:58:13.992Z,41.6
2023-09-23T21:03:15.864Z,42.2
2023-09-23T21:08:14.644Z,41.9
2023-09-23T21:13:15.037Z,42.6
2023-09-23T21:18:18.382Z,42.6
2023-09-23T21:23:21.135Z,42.8
2023-09-23T21:28:23.621Z,43.3
2023-09-23T21:33:26.528Z,43.4
2023-09-23T21:38:26.477Z,43.5
2023-09-23T21:43:26.864Z,43.5
2023-09-23T21:48:27.330Z,43.9
2023-09-23T21:53:28.118Z,44.3
2023-09-23T21:58:31.087Z,44.2
2023-09-23T22:03:31.227Z,44.4
2023-09-23T22:08:34.298Z,44.7
2023-09-23T22:13:34.125Z,44.4
2023-09-23T22:18:34.653Z,45.1
2023-09-23T22:23:34.840Z,44.9
2023-09-23T22:28:35.145Z,45.5
2023-09-23T22:33:35.813Z,45.2
2023-09-23T22:38:36.165Z,45
2023-09-23T22:43:39.256Z,45.6
2023-09-23T22:48:39.111Z,46
2023-09-23T22:53:42.307Z,46
2023-09-23T22:58:42.304Z,46.2
2023-09-23T23:03:42.684Z,46.1
2023-09-23T23:08:47.202Z,46.2
2023-09-23T23:13:47.281Z,46.1
2023-09-23T23:18:47.602Z,45.9
2023-09-23T23:23:51.069Z,46.2
2023-09-23T23:28:53.810Z,45.9
2023-09-23T23:33:53.743Z,46
2023-09-23T23:38:54.210Z,45.8
2023-09-23T23:43:56.654Z,46.1
2023-09-23T23:48:59.054Z,46.2
2023-09-23T23:53:59.335Z,46.4
2023-09-23T23:58:59.764Z,46
